sensor_id;sensor_type;location;lat;lon;timestamp;temperature;humidity
71039;SHT30;58692;43.212;27.908;2022-09-03T00:00:10;24.25;84.38
71039;SHT30;58692;43.212;27.908;2022-09-03T00:02:48;24.31;85.00
71039;SHT30;58692;43.212;27.908;2022-09-03T00:05:24;24.30;86.31
71039;SHT30;58692;43.212;27.908;2022-09-03T00:13:28;24.33;86.75
71039;SHT30;58692;43.212;27.908;2022-09-03T00:15:56;24.38;86.88
71039;SHT30;58692;43.212;27.908;2022-09-03T00:18:26;24.37;86.41
71039;SHT30;58692;43.212;27.908;2022-09-03T00:20:57;24.21;85.38
71039;SHT30;58692;43.212;27.908;2022-09-03T00:23:29;24.16;84.79
71039;SHT30;58692;43.212;27.908;2022-09-03T00:26:14;24.10;84.15
71039;SHT30;58692;43.212;27.908;2022-09-03T00:28:49;23.99;83.75
71039;SHT30;58692;43.212;27.908;2022-09-03T00:31:20;23.93;82.97
71039;SHT30;58692;43.212;27.908;2022-09-03T00:33:55;23.84;82.89
71039;SHT30;58692;43.212;27.908;2022-09-03T00:36:30;23.87;83.37
71039;SHT30;58692;43.212;27.908;2022-09-03T00:38:58;23.87;83.07
71039;SHT30;58692;43.212;27.908;2022-09-03T00:41:35;23.77;82.86
71039;SHT30;58692;43.212;27.908;2022-09-03T00:44:07;23.73;82.51
71039;SHT30;58692;43.212;27.908;2022-09-03T00:46:58;23.69;82.42
71039;SHT30;58692;43.212;27.908;2022-09-03T00:52:39;23.80;83.52
71039;SHT30;58692;43.212;27.908;2022-09-03T00:55:21;23.76;84.85
71039;SHT30;58692;43.212;27.908;2022-09-03T00:58:03;23.80;84.15
71039;SHT30;58692;43.212;27.908;2022-09-03T01:00:34;23.76;83.26
71039;SHT30;58692;43.212;27.908;2022-09-03T01:06:00;23.65;80.51
71039;SHT30;58692;43.212;27.908;2022-09-03T01:11:23;23.63;82.26
71039;SHT30;58692;43.212;27.908;2022-09-03T01:16:52;23.80;81.89
71039;SHT30;58692;43.212;27.908;2022-09-03T01:22:13;23.76;81.28
71039;SHT30;58692;43.212;27.908;2022-09-03T01:24:58;23.70;81.43
71039;SHT30;58692;43.212;27.908;2022-09-03T01:30:30;23.67;81.63
71039;SHT30;58692;43.212;27.908;2022-09-03T01:46:24;23.66;82.13
71039;SHT30;58692;43.212;27.908;2022-09-03T01:49:01;23.72;81.55
71039;SHT30;58692;43.212;27.908;2022-09-03T01:51:30;23.65;81.18
71039;SHT30;58692;43.212;27.908;2022-09-03T01:54:26;23.55;80.02
71039;SHT30;58692;43.212;27.908;2022-09-03T01:59:33;23.43;78.93
71039;SHT30;58692;43.212;27.908;2022-09-03T02:02:10;23.25;78.29
71039;SHT30;58692;43.212;27.908;2022-09-03T02:04:56;22.99;80.37
71039;SHT30;58692;43.212;27.908;2022-09-03T02:07:24;22.92;79.66
71039;SHT30;58692;43.212;27.908;2022-09-03T02:09:50;22.95;78.93
71039;SHT30;58692;43.212;27.908;2022-09-03T02:12:17;22.86;79.46
71039;SHT30;58692;43.212;27.908;2022-09-03T02:14:45;22.72;79.96
71039;SHT30;58692;43.212;27.908;2022-09-03T02:17:11;22.77;80.06
71039;SHT30;58692;43.212;27.908;2022-09-03T02:19:37;22.75;80.27
71039;SHT30;58692;43.212;27.908;2022-09-03T02:22:03;22.54;81.27
71039;SHT30;58692;43.212;27.908;2022-09-03T02:24:29;22.37;81.15
71039;SHT30;58692;43.212;27.908;2022-09-03T02:26:55;22.46;81.29
71039;SHT30;58692;43.212;27.908;2022-09-03T02:29:22;22.41;80.85
71039;SHT30;58692;43.212;27.908;2022-09-03T02:31:48;22.39;80.83
71039;SHT30;58692;43.212;27.908;2022-09-03T02:34:14;22.40;81.50
71039;SHT30;58692;43.212;27.908;2022-09-03T02:36:42;22.44;80.97
71039;SHT30;58692;43.212;27.908;2022-09-03T02:39:10;22.33;81.19
71039;SHT30;58692;43.212;27.908;2022-09-03T02:41:36;22.23;80.51
71039;SHT30;58692;43.212;27.908;2022-09-03T02:44:15;22.17;81.20
71039;SHT30;58692;43.212;27.908;2022-09-03T02:46:53;22.24;80.48
71039;SHT30;58692;43.212;27.908;2022-09-03T02:49:21;22.29;80.12
71039;SHT30;58692;43.212;27.908;2022-09-03T02:51:46;22.24;80.32
71039;SHT30;58692;43.212;27.908;2022-09-03T02:54:13;22.17;79.73
71039;SHT30;58692;43.212;27.908;2022-09-03T02:56:39;22.16;80.72
71039;SHT30;58692;43.212;27.908;2022-09-03T02:59:06;22.06;79.59
71039;SHT30;58692;43.212;27.908;2022-09-03T03:01:32;21.99;80.50
71039;SHT30;58692;43.212;27.908;2022-09-03T03:03:58;22.09;79.88
71039;SHT30;58692;43.212;27.908;2022-09-03T03:06:24;22.21;79.95
71039;SHT30;58692;43.212;27.908;2022-09-03T03:08:50;22.13;79.47
71039;SHT30;58692;43.212;27.908;2022-09-03T03:11:17;21.76;79.68
71039;SHT30;58692;43.212;27.908;2022-09-03T03:13:45;21.69;80.03
71039;SHT30;58692;43.212;27.908;2022-09-03T03:16:11;21.58;79.75
71039;SHT30;58692;43.212;27.908;2022-09-03T03:18:38;21.59;80.44
71039;SHT30;58692;43.212;27.908;2022-09-03T03:21:06;21.65;79.36
71039;SHT30;58692;43.212;27.908;2022-09-03T03:23:33;21.58;79.87
71039;SHT30;58692;43.212;27.908;2022-09-03T03:26:04;21.59;79.79
71039;SHT30;58692;43.212;27.908;2022-09-03T03:28:30;21.78;79.88
71039;SHT30;58692;43.212;27.908;2022-09-03T03:31:06;21.76;79.39
71039;SHT30;58692;43.212;27.908;2022-09-03T03:33:32;21.88;79.15
71039;SHT30;58692;43.212;27.908;2022-09-03T03:35:58;21.95;79.63
71039;SHT30;58692;43.212;27.908;2022-09-03T03:38:27;21.86;78.63
71039;SHT30;58692;43.212;27.908;2022-09-03T03:40:53;21.81;79.10
71039;SHT30;58692;43.212;27.908;2022-09-03T03:43:19;21.81;79.21
71039;SHT30;58692;43.212;27.908;2022-09-03T03:45:55;21.79;79.80
71039;SHT30;58692;43.212;27.908;2022-09-03T03:48:20;21.75;79.68
71039;SHT30;58692;43.212;27.908;2022-09-03T03:50:46;21.81;79.62
71039;SHT30;58692;43.212;27.908;2022-09-03T03:53:11;21.93;79.43
71039;SHT30;58692;43.212;27.908;2022-09-03T03:55:37;21.95;79.28
71039;SHT30;58692;43.212;27.908;2022-09-03T03:58:03;21.96;78.67
71039;SHT30;58692;43.212;27.908;2022-09-03T04:00:28;21.82;79.75
71039;SHT30;58692;43.212;27.908;2022-09-03T04:02:54;21.95;79.23
71039;SHT30;58692;43.212;27.908;2022-09-03T04:05:19;21.90;79.26
71039;SHT30;58692;43.212;27.908;2022-09-03T04:07:45;21.76;79.27
71039;SHT30;58692;43.212;27.908;2022-09-03T04:10:10;21.83;78.73
71039;SHT30;58692;43.212;27.908;2022-09-03T04:12:36;21.79;78.61
71039;SHT30;58692;43.212;27.908;2022-09-03T04:15:02;21.61;79.16
71039;SHT30;58692;43.212;27.908;2022-09-03T04:17:27;21.59;79.33
71039;SHT30;58692;43.212;27.908;2022-09-03T04:19:53;21.58;79.19
71039;SHT30;58692;43.212;27.908;2022-09-03T04:22:18;21.58;79.39
71039;SHT30;58692;43.212;27.908;2022-09-03T04:24:44;21.58;79.46
71039;SHT30;58692;43.212;27.908;2022-09-03T04:27:10;21.69;79.39
71039;SHT30;58692;43.212;27.908;2022-09-03T04:29:35;21.59;79.62
71039;SHT30;58692;43.212;27.908;2022-09-03T04:32:01;21.66;79.13
71039;SHT30;58692;43.212;27.908;2022-09-03T04:34:42;21.76;78.71
71039;SHT30;58692;43.212;27.908;2022-09-03T04:37:07;21.54;79.04
71039;SHT30;58692;43.212;27.908;2022-09-03T04:39:34;21.56;78.47
71039;SHT30;58692;43.212;27.908;2022-09-03T04:41:59;21.54;78.42
71039;SHT30;58692;43.212;27.908;2022-09-03T04:44:25;21.51;79.07
71039;SHT30;58692;43.212;27.908;2022-09-03T04:46:50;21.45;79.26
71039;SHT30;58692;43.212;27.908;2022-09-03T04:49:17;21.32;79.13
71039;SHT30;58692;43.212;27.908;2022-09-03T04:51:43;21.52;78.64
71039;SHT30;58692;43.212;27.908;2022-09-03T04:54:09;21.65;77.80
71039;SHT30;58692;43.212;27.908;2022-09-03T04:56:38;21.66;78.67
71039;SHT30;58692;43.212;27.908;2022-09-03T04:59:06;21.82;77.71
71039;SHT30;58692;43.212;27.908;2022-09-03T05:01:34;21.93;77.02
71039;SHT30;58692;43.212;27.908;2022-09-03T05:04:00;22.02;76.26
71039;SHT30;58692;43.212;27.908;2022-09-03T05:06:27;22.09;76.11
71039;SHT30;58692;43.212;27.908;2022-09-03T05:08:54;22.10;75.87
71039;SHT30;58692;43.212;27.908;2022-09-03T05:11:21;22.14;75.63
71039;SHT30;58692;43.212;27.908;2022-09-03T05:13:48;22.02;75.61
71039;SHT30;58692;43.212;27.908;2022-09-03T05:16:15;21.97;75.57
71039;SHT30;58692;43.212;27.908;2022-09-03T05:18:40;21.96;75.90
71039;SHT30;58692;43.212;27.908;2022-09-03T05:21:10;21.86;76.10
71039;SHT30;58692;43.212;27.908;2022-09-03T05:23:38;21.67;76.33
71039;SHT30;58692;43.212;27.908;2022-09-03T05:26:06;21.63;76.30
71039;SHT30;58692;43.212;27.908;2022-09-03T05:28:35;21.71;75.66
71039;SHT30;58692;43.212;27.908;2022-09-03T05:31:03;21.85;75.28
71039;SHT30;58692;43.212;27.908;2022-09-03T05:33:33;21.85;75.14
71039;SHT30;58692;43.212;27.908;2022-09-03T05:36:02;21.93;75.97
71039;SHT30;58692;43.212;27.908;2022-09-03T05:38:28;22.12;74.26
71039;SHT30;58692;43.212;27.908;2022-09-03T05:40:57;22.07;75.07
71039;SHT30;58692;43.212;27.908;2022-09-03T05:43:23;22.39;74.49
71039;SHT30;58692;43.212;27.908;2022-09-03T05:45:50;22.51;72.67
71039;SHT30;58692;43.212;27.908;2022-09-03T05:48:15;22.37;74.08
71039;SHT30;58692;43.212;27.908;2022-09-03T05:50:41;22.48;72.37
71039;SHT30;58692;43.212;27.908;2022-09-03T05:53:06;22.53;72.30
71039;SHT30;58692;43.212;27.908;2022-09-03T05:55:32;22.40;72.43
71039;SHT30;58692;43.212;27.908;2022-09-03T05:57:58;22.44;72.61
71039;SHT30;58692;43.212;27.908;2022-09-03T06:00:24;22.07;74.01
71039;SHT30;58692;43.212;27.908;2022-09-03T06:02:50;22.09;73.55
71039;SHT30;58692;43.212;27.908;2022-09-03T06:05:16;22.36;72.62
71039;SHT30;58692;43.212;27.908;2022-09-03T06:07:43;22.39;72.47
71039;SHT30;58692;43.212;27.908;2022-09-03T06:10:08;22.40;72.52
71039;SHT30;58692;43.212;27.908;2022-09-03T06:12:35;22.43;71.79
71039;SHT30;58692;43.212;27.908;2022-09-03T06:15:01;22.13;73.24
71039;SHT30;58692;43.212;27.908;2022-09-03T06:17:26;22.57;71.98
71039;SHT30;58692;43.212;27.908;2022-09-03T06:19:52;22.41;71.80
71039;SHT30;58692;43.212;27.908;2022-09-03T06:22:18;22.35;71.66
71039;SHT30;58692;43.212;27.908;2022-09-03T06:24:43;22.51;71.27
71039;SHT30;58692;43.212;27.908;2022-09-03T06:27:09;22.81;70.08
71039;SHT30;58692;43.212;27.908;2022-09-03T06:29:34;22.95;69.69
71039;SHT30;58692;43.212;27.908;2022-09-03T06:32:00;23.41;68.71
71039;SHT30;58692;43.212;27.908;2022-09-03T06:34:28;23.39;68.60
71039;SHT30;58692;43.212;27.908;2022-09-03T06:36:54;23.29;68.89
71039;SHT30;58692;43.212;27.908;2022-09-03T06:39:19;23.07;69.24
71039;SHT30;58692;43.212;27.908;2022-09-03T06:41:48;22.80;70.06
71039;SHT30;58692;43.212;27.908;2022-09-03T06:44:16;22.88;69.23
71039;SHT30;58692;43.212;27.908;2022-09-03T06:46:42;23.67;67.58
71039;SHT30;58692;43.212;27.908;2022-09-03T06:49:09;24.96;63.33
71039;SHT30;58692;43.212;27.908;2022-09-03T06:51:35;24.82;63.01
71039;SHT30;58692;43.212;27.908;2022-09-03T06:54:05;25.06;62.77
71039;SHT30;58692;43.212;27.908;2022-09-03T06:56:31;24.47;64.49
71039;SHT30;58692;43.212;27.908;2022-09-03T06:58:59;23.80;66.34
71039;SHT30;58692;43.212;27.908;2022-09-03T07:01:29;23.90;66.23
71039;SHT30;58692;43.212;27.908;2022-09-03T07:03:58;23.93;66.02
71039;SHT30;58692;43.212;27.908;2022-09-03T07:06:27;23.76;66.33
71039;SHT30;58692;43.212;27.908;2022-09-03T07:08:53;23.32;67.58
71039;SHT30;58692;43.212;27.908;2022-09-03T07:11:21;23.22;68.22
71039;SHT30;58692;43.212;27.908;2022-09-03T07:13:49;23.26;68.30
71039;SHT30;58692;43.212;27.908;2022-09-03T07:16:19;23.23;68.11
71039;SHT30;58692;43.212;27.908;2022-09-03T07:18:45;23.33;67.84
71039;SHT30;58692;43.212;27.908;2022-09-03T07:21:14;23.16;68.02
71039;SHT30;58692;43.212;27.908;2022-09-03T07:23:40;23.11;68.50
71039;SHT30;58692;43.212;27.908;2022-09-03T07:26:10;23.04;68.22
71039;SHT30;58692;43.212;27.908;2022-09-03T07:28:37;22.95;68.45
71039;SHT30;58692;43.212;27.908;2022-09-03T07:31:09;22.91;68.55
71039;SHT30;58692;43.212;27.908;2022-09-03T07:33:37;22.97;68.48
71039;SHT30;58692;43.212;27.908;2022-09-03T07:36:05;22.78;68.92
71039;SHT30;58692;43.212;27.908;2022-09-03T07:38:33;22.53;69.58
71039;SHT30;58692;43.212;27.908;2022-09-03T07:40:59;22.35;69.98
71039;SHT30;58692;43.212;27.908;2022-09-03T07:43:27;22.46;69.81
71039;SHT30;58692;43.212;27.908;2022-09-03T07:45:54;22.36;70.08
71039;SHT30;58692;43.212;27.908;2022-09-03T07:48:21;22.29;70.26
71039;SHT30;58692;43.212;27.908;2022-09-03T07:50:47;22.46;69.89
71039;SHT30;58692;43.212;27.908;2022-09-03T07:53:15;22.32;70.10
71039;SHT30;58692;43.212;27.908;2022-09-03T07:55:41;22.29;70.46
71039;SHT30;58692;43.212;27.908;2022-09-03T07:58:08;21.99;70.76
71039;SHT30;58692;43.212;27.908;2022-09-03T08:00:35;22.14;70.50
71039;SHT30;58692;43.212;27.908;2022-09-03T08:03:00;22.78;68.21
71039;SHT30;58692;43.212;27.908;2022-09-03T08:05:31;23.12;66.80
71039;SHT30;58692;43.212;27.908;2022-09-03T08:07:59;23.07;67.35
71039;SHT30;58692;43.212;27.908;2022-09-03T08:10:26;23.15;66.88
71039;SHT30;58692;43.212;27.908;2022-09-03T08:12:55;23.80;65.44
71039;SHT30;58692;43.212;27.908;2022-09-03T08:15:20;25.74;59.77
71039;SHT30;58692;43.212;27.908;2022-09-03T08:17:46;25.36;60.85
71039;SHT30;58692;43.212;27.908;2022-09-03T08:20:11;26.04;58.87
71039;SHT30;58692;43.212;27.908;2022-09-03T08:22:37;27.13;55.58
71039;SHT30;58692;43.212;27.908;2022-09-03T08:25:03;27.84;53.77
71039;SHT30;58692;43.212;27.908;2022-09-03T08:27:30;26.51;57.52
71039;SHT30;58692;43.212;27.908;2022-09-03T08:29:56;26.96;56.08
71039;SHT30;58692;43.212;27.908;2022-09-03T08:32:21;27.63;54.67
71039;SHT30;58692;43.212;27.908;2022-09-03T08:34:47;28.14;53.31
71039;SHT30;58692;43.212;27.908;2022-09-03T08:37:12;27.50;54.91
71039;SHT30;58692;43.212;27.908;2022-09-03T08:39:38;27.03;55.56
71039;SHT30;58692;43.212;27.908;2022-09-03T08:42:14;26.04;58.17
71039;SHT30;58692;43.212;27.908;2022-09-03T08:44:57;26.22;58.15
71039;SHT30;58692;43.212;27.908;2022-09-03T08:47:44;27.24;55.53
71039;SHT30;58692;43.212;27.908;2022-09-03T08:55:30;26.49;57.36
71039;SHT30;58692;43.212;27.908;2022-09-03T08:58:03;26.21;57.70
71039;SHT30;58692;43.212;27.908;2022-09-03T09:00:47;26.76;56.55
71039;SHT30;58692;43.212;27.908;2022-09-03T09:03:33;27.04;55.95
71039;SHT30;58692;43.212;27.908;2022-09-03T09:06:16;27.93;54.29
71039;SHT30;58692;43.212;27.908;2022-09-03T09:14:42;29.11;50.37
71039;SHT30;58692;43.212;27.908;2022-09-03T09:22:37;27.46;54.38
71039;SHT30;58692;43.212;27.908;2022-09-03T09:25:11;27.20;55.21
71039;SHT30;58692;43.212;27.908;2022-09-03T09:27:47;27.49;54.46
71039;SHT30;58692;43.212;27.908;2022-09-03T09:30:16;28.11;53.03
71039;SHT30;58692;43.212;27.908;2022-09-03T09:32:42;28.11;53.19
71039;SHT30;58692;43.212;27.908;2022-09-03T09:35:08;27.77;53.79
71039;SHT30;58692;43.212;27.908;2022-09-03T09:37:46;27.27;54.62
71039;SHT30;58692;43.212;27.908;2022-09-03T09:42:48;26.91;56.22
71039;SHT30;58692;43.212;27.908;2022-09-03T09:45:13;26.52;56.91
71039;SHT30;58692;43.212;27.908;2022-09-03T09:47:40;26.75;56.64
71039;SHT30;58692;43.212;27.908;2022-09-03T09:50:17;26.59;56.95
71039;SHT30;58692;43.212;27.908;2022-09-03T09:52:44;26.72;56.80
71039;SHT30;58692;43.212;27.908;2022-09-03T09:55:16;26.56;57.04
71039;SHT30;58692;43.212;27.908;2022-09-03T09:57:42;26.93;55.98
71039;SHT30;58692;43.212;27.908;2022-09-03T10:00:13;26.47;57.33
71039;SHT30;58692;43.212;27.908;2022-09-03T10:02:49;26.61;56.65
71039;SHT30;58692;43.212;27.908;2022-09-03T10:05:21;27.16;54.96
71039;SHT30;58692;43.212;27.908;2022-09-03T10:08:00;27.03;55.88
71039;SHT30;58692;43.212;27.908;2022-09-03T10:10:27;27.83;53.50
71039;SHT30;58692;43.212;27.908;2022-09-03T10:13:05;29.04;50.72
71039;SHT30;58692;43.212;27.908;2022-09-03T10:18:41;28.99;50.60
71039;SHT30;58692;43.212;27.908;2022-09-03T10:26:22;30.26;47.43
71039;SHT30;58692;43.212;27.908;2022-09-03T10:28:59;30.82;46.08
71039;SHT30;58692;43.212;27.908;2022-09-03T10:31:41;31.23;45.09
71039;SHT30;58692;43.212;27.908;2022-09-03T10:34:21;30.94;45.65
71039;SHT30;58692;43.212;27.908;2022-09-03T10:37:06;30.42;46.15
71039;SHT30;58692;43.212;27.908;2022-09-03T10:42:53;29.17;48.86
71039;SHT30;58692;43.212;27.908;2022-09-03T10:50:54;28.41;50.16
71039;SHT30;58692;43.212;27.908;2022-09-03T10:56:31;27.63;52.65
71039;SHT30;58692;43.212;27.908;2022-09-03T10:59:04;27.58;52.78
71039;SHT30;58692;43.212;27.908;2022-09-03T11:04:38;29.06;49.56
71039;SHT30;58692;43.212;27.908;2022-09-03T11:07:12;29.93;47.51
71039;SHT30;58692;43.212;27.908;2022-09-03T11:10:00;30.40;46.39
71039;SHT30;58692;43.212;27.908;2022-09-03T11:12:34;30.70;45.59
71039;SHT30;58692;43.212;27.908;2022-09-03T11:15:04;30.37;46.27
71039;SHT30;58692;43.212;27.908;2022-09-03T11:17:57;29.93;47.30
71039;SHT30;58692;43.212;27.908;2022-09-03T11:20:26;29.33;48.49
71039;SHT30;58692;43.212;27.908;2022-09-03T11:23:00;29.51;48.18
71039;SHT30;58692;43.212;27.908;2022-09-03T11:25:31;29.10;49.02
71039;SHT30;58692;43.212;27.908;2022-09-03T11:31:16;30.88;44.99
71039;SHT30;58692;43.212;27.908;2022-09-03T11:33:47;30.93;44.65
71039;SHT30;58692;43.212;27.908;2022-09-03T11:36:30;31.01;44.58
71039;SHT30;58692;43.212;27.908;2022-09-03T11:39:17;30.93;44.85
71039;SHT30;58692;43.212;27.908;2022-09-03T11:41:55;31.61;43.67
71039;SHT30;58692;43.212;27.908;2022-09-03T11:44:23;31.16;43.98
71039;SHT30;58692;43.212;27.908;2022-09-03T11:47:00;31.01;44.25
71039;SHT30;58692;43.212;27.908;2022-09-03T11:49:29;30.56;44.81
71039;SHT30;58692;43.212;27.908;2022-09-03T11:52:01;30.36;44.80
71039;SHT30;58692;43.212;27.908;2022-09-03T11:54:31;30.62;44.86
71039;SHT30;58692;43.212;27.908;2022-09-03T11:57:08;30.56;44.91
71039;SHT30;58692;43.212;27.908;2022-09-03T11:59:36;30.57;45.09
71039;SHT30;58692;43.212;27.908;2022-09-03T12:04:40;30.77;44.49
71039;SHT30;58692;43.212;27.908;2022-09-03T12:09:55;29.51;46.97
71039;SHT30;58692;43.212;27.908;2022-09-03T12:18:22;29.70;46.60
71039;SHT30;58692;43.212;27.908;2022-09-03T12:21:04;28.75;48.61
71039;SHT30;58692;43.212;27.908;2022-09-03T12:23:48;28.83;48.41
71039;SHT30;58692;43.212;27.908;2022-09-03T12:26:17;27.93;50.52
71039;SHT30;58692;43.212;27.908;2022-09-03T12:28:48;27.44;51.77
71039;SHT30;58692;43.212;27.908;2022-09-03T12:31:21;27.00;52.57
71039;SHT30;58692;43.212;27.908;2022-09-03T12:33:53;27.12;52.58
71039;SHT30;58692;43.212;27.908;2022-09-03T12:36:21;27.14;52.74
71039;SHT30;58692;43.212;27.908;2022-09-03T12:38:47;26.86;53.17
71039;SHT30;58692;43.212;27.908;2022-09-03T12:41:29;26.83;53.54
71039;SHT30;58692;43.212;27.908;2022-09-03T12:43:57;26.71;53.46
71039;SHT30;58692;43.212;27.908;2022-09-03T12:46:26;26.58;53.60
71039;SHT30;58692;43.212;27.908;2022-09-03T12:48:57;26.30;54.44
71039;SHT30;58692;43.212;27.908;2022-09-03T12:51:31;26.47;54.18
71039;SHT30;58692;43.212;27.908;2022-09-03T12:53:57;26.45;54.01
71039;SHT30;58692;43.212;27.908;2022-09-03T12:56:24;26.47;54.11
71039;SHT30;58692;43.212;27.908;2022-09-03T12:58:57;26.35;54.31
71039;SHT30;58692;43.212;27.908;2022-09-03T13:01:27;26.01;54.98
71039;SHT30;58692;43.212;27.908;2022-09-03T13:04:02;25.79;55.61
71039;SHT30;58692;43.212;27.908;2022-09-03T13:09:24;25.29;56.59
71039;SHT30;58692;43.212;27.908;2022-09-03T13:11:51;25.26;56.95
71039;SHT30;58692;43.212;27.908;2022-09-03T13:14:20;25.25;56.82
71039;SHT30;58692;43.212;27.908;2022-09-03T13:16:50;25.05;57.09
71039;SHT30;58692;43.212;27.908;2022-09-03T13:30:19;24.23;59.56
71039;SHT30;58692;43.212;27.908;2022-09-03T13:32:49;24.30;59.50
71039;SHT30;58692;43.212;27.908;2022-09-03T13:35:29;24.51;58.69
71039;SHT30;58692;43.212;27.908;2022-09-03T13:41:06;24.00;60.40
71039;SHT30;58692;43.212;27.908;2022-09-03T13:43:40;24.34;59.64
71039;SHT30;58692;43.212;27.908;2022-09-03T13:46:15;24.20;59.86
71039;SHT30;58692;43.212;27.908;2022-09-03T13:48:44;24.17;59.95
71039;SHT30;58692;43.212;27.908;2022-09-03T13:54:22;23.67;61.52
71039;SHT30;58692;43.212;27.908;2022-09-03T13:56:58;23.45;62.29
71039;SHT30;58692;43.212;27.908;2022-09-03T13:59:32;23.67;61.59
71039;SHT30;58692;43.212;27.908;2022-09-03T14:04:48;23.28;62.22
71039;SHT30;58692;43.212;27.908;2022-09-03T14:10:23;23.66;61.68
71039;SHT30;58692;43.212;27.908;2022-09-03T14:13:04;24.03;60.76
71039;SHT30;58692;43.212;27.908;2022-09-03T14:15:40;24.10;60.41
71039;SHT30;58692;43.212;27.908;2022-09-03T14:23:17;23.94;60.60
71039;SHT30;58692;43.212;27.908;2022-09-03T14:25:55;23.45;61.67
71039;SHT30;58692;43.212;27.908;2022-09-03T14:28:33;23.28;62.34
71039;SHT30;58692;43.212;27.908;2022-09-03T14:33:57;23.18;62.57
71039;SHT30;58692;43.212;27.908;2022-09-03T14:39:11;23.12;62.91
71039;SHT30;58692;43.212;27.908;2022-09-03T14:47:22;22.75;64.05
71039;SHT30;58692;43.212;27.908;2022-09-03T14:50:10;22.71;64.08
71039;SHT30;58692;43.212;27.908;2022-09-03T14:58:48;22.80;63.73
71039;SHT30;58692;43.212;27.908;2022-09-03T15:09:41;22.26;64.94
71039;SHT30;58692;43.212;27.908;2022-09-03T15:14:53;22.20;64.38
71039;SHT30;58692;43.212;27.908;2022-09-03T15:26:09;22.05;64.96
71039;SHT30;58692;43.212;27.908;2022-09-03T15:34:40;21.76;66.00
71039;SHT30;58692;43.212;27.908;2022-09-03T15:36:59;21.93;65.57
71039;SHT30;58692;43.212;27.908;2022-09-03T15:39:32;21.71;66.22
71039;SHT30;58692;43.212;27.908;2022-09-03T15:42:05;21.78;66.26
71039;SHT30;58692;43.212;27.908;2022-09-03T15:44:43;21.90;65.82
71039;SHT30;58692;43.212;27.908;2022-09-03T15:47:27;21.82;66.13
71039;SHT30;58692;43.212;27.908;2022-09-03T15:49:59;21.39;67.00
71039;SHT30;58692;43.212;27.908;2022-09-03T15:55:14;21.96;65.57
71039;SHT30;58692;43.212;27.908;2022-09-03T16:01:03;21.55;66.37
71039;SHT30;58692;43.212;27.908;2022-09-03T16:03:37;21.67;66.31
71039;SHT30;58692;43.212;27.908;2022-09-03T16:09:34;21.58;66.54
71039;SHT30;58692;43.212;27.908;2022-09-03T16:12:07;21.61;66.59
71039;SHT30;58692;43.212;27.908;2022-09-03T16:14:39;21.58;66.72
71039;SHT30;58692;43.212;27.908;2022-09-03T16:20:02;21.30;67.83
71039;SHT30;58692;43.212;27.908;2022-09-03T16:22:31;21.04;68.64
71039;SHT30;58692;43.212;27.908;2022-09-03T16:25:01;20.91;69.10
71039;SHT30;58692;43.212;27.908;2022-09-03T16:27:51;20.93;69.09
71039;SHT30;58692;43.212;27.908;2022-09-03T16:35:54;20.67;69.85
71039;SHT30;58692;43.212;27.908;2022-09-03T16:38:26;20.56;69.94
71039;SHT30;58692;43.212;27.908;2022-09-03T16:40:57;20.50;70.30
71039;SHT30;58692;43.212;27.908;2022-09-03T16:43:37;20.49;70.21
71039;SHT30;58692;43.212;27.908;2022-09-03T16:54:26;20.53;70.08
71039;SHT30;58692;43.212;27.908;2022-09-03T16:57:27;20.20;70.86
71039;SHT30;58692;43.212;27.908;2022-09-03T17:00:03;20.18;70.84
71039;SHT30;58692;43.212;27.908;2022-09-03T17:05:55;20.59;69.82
71039;SHT30;58692;43.212;27.908;2022-09-03T17:08:41;20.63;69.60
71039;SHT30;58692;43.212;27.908;2022-09-03T17:14:22;20.57;69.69
71039;SHT30;58692;43.212;27.908;2022-09-03T17:25:26;20.66;69.61
71039;SHT30;58692;43.212;27.908;2022-09-03T17:33:55;20.13;71.37
71039;SHT30;58692;43.212;27.908;2022-09-03T17:36:26;20.26;70.98
71039;SHT30;58692;43.212;27.908;2022-09-03T17:41:51;20.47;70.24
71039;SHT30;58692;43.212;27.908;2022-09-03T17:52:34;20.69;69.50
71039;SHT30;58692;43.212;27.908;2022-09-03T17:55:13;20.70;69.33
71039;SHT30;58692;43.212;27.908;2022-09-03T17:57:47;20.63;69.58
71039;SHT30;58692;43.212;27.908;2022-09-03T18:00:32;20.22;70.94
71039;SHT30;58692;43.212;27.908;2022-09-03T18:05:28;20.36;70.44
71039;SHT30;58692;43.212;27.908;2022-09-03T18:10:38;20.57;69.59
71039;SHT30;58692;43.212;27.908;2022-09-03T18:15:51;20.40;69.84
71039;SHT30;58692;43.212;27.908;2022-09-03T18:18:26;20.49;69.22
71039;SHT30;58692;43.212;27.908;2022-09-03T18:20:55;20.64;68.91
71039;SHT30;58692;43.212;27.908;2022-09-03T18:24:03;20.70;68.49
71039;SHT30;58692;43.212;27.908;2022-09-03T18:26:49;20.37;69.49
71039;SHT30;58692;43.212;27.908;2022-09-03T18:29:42;20.39;69.35
71039;SHT30;58692;43.212;27.908;2022-09-03T18:32:24;20.37;69.11
71039;SHT30;58692;43.212;27.908;2022-09-03T18:35:07;20.29;68.99
71039;SHT30;58692;43.212;27.908;2022-09-03T18:37:48;20.10;69.41
71039;SHT30;58692;43.212;27.908;2022-09-03T18:40:39;19.99;69.54
71039;SHT30;58692;43.212;27.908;2022-09-03T18:43:33;19.95;69.54
71039;SHT30;58692;43.212;27.908;2022-09-03T18:46:27;19.93;69.54
71039;SHT30;58692;43.212;27.908;2022-09-03T18:49:19;19.74;70.26
71039;SHT30;58692;43.212;27.908;2022-09-03T18:52:08;19.78;70.08
71039;SHT30;58692;43.212;27.908;2022-09-03T18:55:07;19.78;70.17
71039;SHT30;58692;43.212;27.908;2022-09-03T18:58:15;19.88;70.02
71039;SHT30;58692;43.212;27.908;2022-09-03T19:04:06;19.54;71.19
71039;SHT30;58692;43.212;27.908;2022-09-03T19:07:03;19.71;70.67
71039;SHT30;58692;43.212;27.908;2022-09-03T19:10:10;19.82;70.16
71039;SHT30;58692;43.212;27.908;2022-09-03T19:16:08;20.05;69.57
71039;SHT30;58692;43.212;27.908;2022-09-03T19:19:15;19.98;69.84
71039;SHT30;58692;43.212;27.908;2022-09-03T19:22:08;19.79;70.17
71039;SHT30;58692;43.212;27.908;2022-09-03T19:24:51;19.92;69.72
71039;SHT30;58692;43.212;27.908;2022-09-03T19:27:54;19.77;70.26
71039;SHT30;58692;43.212;27.908;2022-09-03T19:30:52;19.88;69.77
71039;SHT30;58692;43.212;27.908;2022-09-03T19:33:38;19.93;69.16
71039;SHT30;58692;43.212;27.908;2022-09-03T19:42:12;19.48;70.57
71039;SHT30;58692;43.212;27.908;2022-09-03T19:45:14;19.81;69.39
71039;SHT30;58692;43.212;27.908;2022-09-03T19:48:56;19.69;69.42
71039;SHT30;58692;43.212;27.908;2022-09-03T19:51:21;19.82;69.12
71039;SHT30;58692;43.212;27.908;2022-09-03T19:54:05;19.88;68.92